sensor_id;sensor_type;location;lat;lon;timestamp;temperature;humidity
4578;DHT22;2301;47.354;8.528;2022-11-20T00:00:39;9.00;83.90
4578;DHT22;2301;47.354;8.528;2022-11-20T00:03:06;9.00;83.80
4578;DHT22;2301;47.354;8.528;2022-11-20T00:05:34;9.00;83.90
4578;DHT22;2301;47.354;8.528;2022-11-20T00:08:01;9.00;83.90
4578;DHT22;2301;47.354;8.528;2022-11-20T00:10:28;9.00;84.10
4578;DHT22;2301;47.354;8.528;2022-11-20T00:12:55;9.00;84.10
4578;DHT22;2301;47.354;8.528;2022-11-20T00:15:22;9.00;84.30
4578;DHT22;2301;47.354;8.528;2022-11-20T00:17:49;9.10;84.60
4578;DHT22;2301;47.354;8.528;2022-11-20T00:20:17;9.10;84.10
4578;DHT22;2301;47.354;8.528;2022-11-20T00:22:45;9.10;83.90
4578;DHT22;2301;47.354;8.528;2022-11-20T00:25:12;9.10;83.40
4578;DHT22;2301;47.354;8.528;2022-11-20T00:27:39;9.10;83.60
4578;DHT22;2301;47.354;8.528;2022-11-20T00:30:07;9.10;83.20
4578;DHT22;2301;47.354;8.528;2022-11-20T00:32:34;9.20;83.40
4578;DHT22;2301;47.354;8.528;2022-11-20T00:35:01;9.20;83.20
4578;DHT22;2301;47.354;8.528;2022-11-20T00:37:28;9.20;83.40
4578;DHT22;2301;47.354;8.528;2022-11-20T00:39:56;9.20;82.60
4578;DHT22;2301;47.354;8.528;2022-11-20T00:42:23;9.20;82.20
4578;DHT22;2301;47.354;8.528;2022-11-20T00:44:50;9.30;82.60
4578;DHT22;2301;47.354;8.528;2022-11-20T00:47:17;9.30;83.30
4578;DHT22;2301;47.354;8.528;2022-11-20T00:49:43;9.40;84.20
4578;DHT22;2301;47.354;8.528;2022-11-20T00:52:10;9.40;83.60
4578;DHT22;2301;47.354;8.528;2022-11-20T00:54:37;9.50;83.40
4578;DHT22;2301;47.354;8.528;2022-11-20T00:57:05;9.50;82.80
4578;DHT22;2301;47.354;8.528;2022-11-20T00:59:32;9.50;82.70
4578;DHT22;2301;47.354;8.528;2022-11-20T01:01:59;9.50;82.40
4578;DHT22;2301;47.354;8.528;2022-11-20T01:04:26;9.60;82.90
4578;DHT22;2301;47.354;8.528;2022-11-20T01:06:53;9.60;82.80
4578;DHT22;2301;47.354;8.528;2022-11-20T01:09:20;9.60;82.40
4578;DHT22;2301;47.354;8.528;2022-11-20T01:11:47;9.60;82.10
4578;DHT22;2301;47.354;8.528;2022-11-20T01:14:18;9.60;82.80
4578;DHT22;2301;47.354;8.528;2022-11-20T01:16:47;9.60;83.60
4578;DHT22;2301;47.354;8.528;2022-11-20T01:19:16;9.70;83.40
4578;DHT22;2301;47.354;8.528;2022-11-20T01:21:45;9.70;82.30
4578;DHT22;2301;47.354;8.528;2022-11-20T01:24:13;9.70;83.10
4578;DHT22;2301;47.354;8.528;2022-11-20T01:26:41;9.80;82.30
4578;DHT22;2301;47.354;8.528;2022-11-20T01:29:12;9.80;81.70
4578;DHT22;2301;47.354;8.528;2022-11-20T01:31:42;9.70;81.50
4578;DHT22;2301;47.354;8.528;2022-11-20T01:34:10;9.70;81.50
4578;DHT22;2301;47.354;8.528;2022-11-20T01:36:39;9.70;81.90
4578;DHT22;2301;47.354;8.528;2022-11-20T01:39:09;9.70;82.00
4578;DHT22;2301;47.354;8.528;2022-11-20T01:41:36;9.70;81.70
4578;DHT22;2301;47.354;8.528;2022-11-20T01:44:22;9.70;81.60
4578;DHT22;2301;47.354;8.528;2022-11-20T01:47:12;9.70;81.70
4578;DHT22;2301;47.354;8.528;2022-11-20T01:49:42;9.60;81.80
4578;DHT22;2301;47.354;8.528;2022-11-20T01:52:16;9.60;81.80
4578;DHT22;2301;47.354;8.528;2022-11-20T01:54:46;9.60;81.80
4578;DHT22;2301;47.354;8.528;2022-11-20T01:57:15;9.50;81.50
4578;DHT22;2301;47.354;8.528;2022-11-20T01:59:49;9.50;81.50
4578;DHT22;2301;47.354;8.528;2022-11-20T02:02:19;9.50;81.80
4578;DHT22;2301;47.354;8.528;2022-11-20T02:04:47;9.50;82.10
4578;DHT22;2301;47.354;8.528;2022-11-20T02:07:16;9.50;82.10
4578;DHT22;2301;47.354;8.528;2022-11-20T02:09:43;9.50;81.80
4578;DHT22;2301;47.354;8.528;2022-11-20T02:12:10;9.50;81.70
4578;DHT22;2301;47.354;8.528;2022-11-20T02:14:57;9.50;81.90
4578;DHT22;2301;47.354;8.528;2022-11-20T02:17:25;9.60;82.10
4578;DHT22;2301;47.354;8.528;2022-11-20T02:19:52;9.60;82.10
4578;DHT22;2301;47.354;8.528;2022-11-20T02:22:24;9.60;82.10
4578;DHT22;2301;47.354;8.528;2022-11-20T02:24:55;9.60;82.00
4578;DHT22;2301;47.354;8.528;2022-11-20T02:27:23;9.60;82.30
4578;DHT22;2301;47.354;8.528;2022-11-20T02:29:52;9.60;82.30
4578;DHT22;2301;47.354;8.528;2022-11-20T02:32:20;9.60;82.30
4578;DHT22;2301;47.354;8.528;2022-11-20T02:34:47;9.50;82.20
4578;DHT22;2301;47.354;8.528;2022-11-20T02:37:16;9.50;81.90
4578;DHT22;2301;47.354;8.528;2022-11-20T02:39:44;9.50;81.80
4578;DHT22;2301;47.354;8.528;2022-11-20T02:42:14;9.50;82.20
4578;DHT22;2301;47.354;8.528;2022-11-20T02:44:41;9.50;82.40
4578;DHT22;2301;47.354;8.528;2022-11-20T02:47:08;9.50;82.40
4578;DHT22;2301;47.354;8.528;2022-11-20T02:49:35;9.50;82.70
4578;DHT22;2301;47.354;8.528;2022-11-20T02:52:01;9.40;82.40
4578;DHT22;2301;47.354;8.528;2022-11-20T02:54:28;9.50;82.70
4578;DHT22;2301;47.354;8.528;2022-11-20T02:56:56;9.50;82.50
4578;DHT22;2301;47.354;8.528;2022-11-20T02:59:24;9.50;82.20
4578;DHT22;2301;47.354;8.528;2022-11-20T03:01:51;9.50;82.30
4578;DHT22;2301;47.354;8.528;2022-11-20T03:04:18;9.50;82.80
4578;DHT22;2301;47.354;8.528;2022-11-20T03:06:45;9.50;82.60
4578;DHT22;2301;47.354;8.528;2022-11-20T03:09:12;9.50;82.10
4578;DHT22;2301;47.354;8.528;2022-11-20T03:11:39;9.50;81.70
4578;DHT22;2301;47.354;8.528;2022-11-20T03:14:06;9.50;81.70
4578;DHT22;2301;47.354;8.528;2022-11-20T03:16:34;9.50;80.50
4578;DHT22;2301;47.354;8.528;2022-11-20T03:19:01;9.50;80.80
4578;DHT22;2301;47.354;8.528;2022-11-20T03:21:28;9.50;81.20
4578;DHT22;2301;47.354;8.528;2022-11-20T03:23:55;9.50;81.40
4578;DHT22;2301;47.354;8.528;2022-11-20T03:26:24;9.60;81.10
4578;DHT22;2301;47.354;8.528;2022-11-20T03:28:53;9.60;80.60
4578;DHT22;2301;47.354;8.528;2022-11-20T03:31:22;9.60;80.40
4578;DHT22;2301;47.354;8.528;2022-11-20T03:33:50;9.50;80.40
4578;DHT22;2301;47.354;8.528;2022-11-20T03:36:18;9.50;80.50
4578;DHT22;2301;47.354;8.528;2022-11-20T03:38:47;9.50;80.40
4578;DHT22;2301;47.354;8.528;2022-11-20T03:41:17;9.50;80.40
4578;DHT22;2301;47.354;8.528;2022-11-20T03:43:47;9.50;80.30
4578;DHT22;2301;47.354;8.528;2022-11-20T03:46:15;9.40;80.20
4578;DHT22;2301;47.354;8.528;2022-11-20T03:48:42;9.40;80.00
4578;DHT22;2301;47.354;8.528;2022-11-20T03:51:12;9.30;79.80
4578;DHT22;2301;47.354;8.528;2022-11-20T03:53:40;9.30;79.80
4578;DHT22;2301;47.354;8.528;2022-11-20T03:56:08;9.30;80.40
4578;DHT22;2301;47.354;8.528;2022-11-20T03:58:35;9.30;79.70
4578;DHT22;2301;47.354;8.528;2022-11-20T04:01:06;9.30;80.00
4578;DHT22;2301;47.354;8.528;2022-11-20T04:03:34;9.40;80.20
4578;DHT22;2301;47.354;8.528;2022-11-20T04:06:03;9.40;80.10
4578;DHT22;2301;47.354;8.528;2022-11-20T04:08:31;9.40;79.50
4578;DHT22;2301;47.354;8.528;2022-11-20T04:11:09;9.30;78.90
4578;DHT22;2301;47.354;8.528;2022-11-20T04:13:36;9.40;79.40
4578;DHT22;2301;47.354;8.528;2022-11-20T04:16:04;9.40;78.90
4578;DHT22;2301;47.354;8.528;2022-11-20T04:18:31;9.40;79.70
4578;DHT22;2301;47.354;8.528;2022-11-20T04:20:58;9.40;79.80
4578;DHT22;2301;47.354;8.528;2022-11-20T04:23:25;9.40;79.90
4578;DHT22;2301;47.354;8.528;2022-11-20T04:25:54;9.40;79.60
4578;DHT22;2301;47.354;8.528;2022-11-20T04:28:21;9.40;79.50
4578;DHT22;2301;47.354;8.528;2022-11-20T04:30:47;9.40;79.10
4578;DHT22;2301;47.354;8.528;2022-11-20T04:33:14;9.40;79.40
4578;DHT22;2301;47.354;8.528;2022-11-20T04:35:48;9.30;79.20
4578;DHT22;2301;47.354;8.528;2022-11-20T04:38:15;9.30;79.80
4578;DHT22;2301;47.354;8.528;2022-11-20T04:40:43;9.30;79.40
4578;DHT22;2301;47.354;8.528;2022-11-20T04:43:11;9.30;79.50
4578;DHT22;2301;47.354;8.528;2022-11-20T04:45:38;9.20;79.30
4578;DHT22;2301;47.354;8.528;2022-11-20T04:48:05;9.20;79.40
4578;DHT22;2301;47.354;8.528;2022-11-20T04:50:32;9.20;79.30
4578;DHT22;2301;47.354;8.528;2022-11-20T04:52:59;9.20;79.70
4578;DHT22;2301;47.354;8.528;2022-11-20T04:55:26;9.20;80.10
4578;DHT22;2301;47.354;8.528;2022-11-20T04:57:52;9.10;80.20
4578;DHT22;2301;47.354;8.528;2022-11-20T05:00:21;9.10;80.20
4578;DHT22;2301;47.354;8.528;2022-11-20T05:02:48;9.10;80.10
4578;DHT22;2301;47.354;8.528;2022-11-20T05:05:15;9.00;80.10
4578;DHT22;2301;47.354;8.528;2022-11-20T05:07:42;8.90;80.70
4578;DHT22;2301;47.354;8.528;2022-11-20T05:10:09;8.80;80.70
4578;DHT22;2301;47.354;8.528;2022-11-20T05:12:36;8.80;81.00
4578;DHT22;2301;47.354;8.528;2022-11-20T05:15:03;8.80;81.00
4578;DHT22;2301;47.354;8.528;2022-11-20T05:17:31;8.70;81.00
4578;DHT22;2301;47.354;8.528;2022-11-20T05:19:58;8.70;81.10
4578;DHT22;2301;47.354;8.528;2022-11-20T05:22:25;8.70;82.30
4578;DHT22;2301;47.354;8.528;2022-11-20T05:24:52;8.70;81.40
4578;DHT22;2301;47.354;8.528;2022-11-20T05:27:19;8.60;81.50
4578;DHT22;2301;47.354;8.528;2022-11-20T05:29:46;8.60;81.40
4578;DHT22;2301;47.354;8.528;2022-11-20T05:32:13;8.60;82.30
4578;DHT22;2301;47.354;8.528;2022-11-20T05:34:41;8.60;82.10
4578;DHT22;2301;47.354;8.528;2022-11-20T05:37:08;8.50;81.80
4578;DHT22;2301;47.354;8.528;2022-11-20T05:39:35;8.50;81.70
4578;DHT22;2301;47.354;8.528;2022-11-20T05:42:01;8.50;81.50
4578;DHT22;2301;47.354;8.528;2022-11-20T05:44:46;8.50;81.80
4578;DHT22;2301;47.354;8.528;2022-11-20T05:47:13;8.40;81.50
4578;DHT22;2301;47.354;8.528;2022-11-20T05:49:41;8.40;82.00
4578;DHT22;2301;47.354;8.528;2022-11-20T05:52:08;8.40;82.30
4578;DHT22;2301;47.354;8.528;2022-11-20T05:54:35;8.40;82.30
4578;DHT22;2301;47.354;8.528;2022-11-20T05:57:02;8.40;82.20
4578;DHT22;2301;47.354;8.528;2022-11-20T05:59:28;8.50;82.10
4578;DHT22;2301;47.354;8.528;2022-11-20T06:01:55;8.50;81.80
4578;DHT22;2301;47.354;8.528;2022-11-20T06:04:22;8.60;82.60
4578;DHT22;2301;47.354;8.528;2022-11-20T06:06:50;8.70;82.40
4578;DHT22;2301;47.354;8.528;2022-11-20T06:09:17;8.70;81.50
4578;DHT22;2301;47.354;8.528;2022-11-20T06:11:44;8.70;81.10
4578;DHT22;2301;47.354;8.528;2022-11-20T06:14:11;8.80;81.00
4578;DHT22;2301;47.354;8.528;2022-11-20T06:16:38;8.80;80.20
4578;DHT22;2301;47.354;8.528;2022-11-20T06:19:05;8.80;80.10
4578;DHT22;2301;47.354;8.528;2022-11-20T06:21:32;8.80;79.90
4578;DHT22;2301;47.354;8.528;2022-11-20T06:24:00;8.80;79.40
4578;DHT22;2301;47.354;8.528;2022-11-20T06:26:27;8.80;79.10
4578;DHT22;2301;47.354;8.528;2022-11-20T06:28:54;8.80;78.60
4578;DHT22;2301;47.354;8.528;2022-11-20T06:31:24;8.80;78.40
4578;DHT22;2301;47.354;8.528;2022-11-20T06:33:52;8.80;78.40
4578;DHT22;2301;47.354;8.528;2022-11-20T06:36:20;8.80;78.10
4578;DHT22;2301;47.354;8.528;2022-11-20T06:38:48;8.80;78.10
4578;DHT22;2301;47.354;8.528;2022-11-20T06:41:18;8.80;78.20
4578;DHT22;2301;47.354;8.528;2022-11-20T06:43:46;8.80;78.30
4578;DHT22;2301;47.354;8.528;2022-11-20T06:46:14;8.80;78.50
4578;DHT22;2301;47.354;8.528;2022-11-20T06:48:43;8.80;78.70
4578;DHT22;2301;47.354;8.528;2022-11-20T06:51:10;8.80;78.80
4578;DHT22;2301;47.354;8.528;2022-11-20T06:53:37;8.70;79.30
4578;DHT22;2301;47.354;8.528;2022-11-20T06:56:05;8.70;78.70
4578;DHT22;2301;47.354;8.528;2022-11-20T06:58:34;8.70;79.20
4578;DHT22;2301;47.354;8.528;2022-11-20T07:01:03;8.70;79.40
4578;DHT22;2301;47.354;8.528;2022-11-20T07:03:30;8.70;79.20
4578;DHT22;2301;47.354;8.528;2022-11-20T07:05:58;8.70;78.90
4578;DHT22;2301;47.354;8.528;2022-11-20T07:08:26;8.60;78.80
4578;DHT22;2301;47.354;8.528;2022-11-20T07:10:57;8.70;79.10
4578;DHT22;2301;47.354;8.528;2022-11-20T07:13:24;8.70;79.20
4578;DHT22;2301;47.354;8.528;2022-11-20T07:15:52;8.70;79.20
4578;DHT22;2301;47.354;8.528;2022-11-20T07:18:19;8.70;79.20
4578;DHT22;2301;47.354;8.528;2022-11-20T07:20:46;8.60;78.60
4578;DHT22;2301;47.354;8.528;2022-11-20T07:23:13;8.60;78.30
4578;DHT22;2301;47.354;8.528;2022-11-20T07:25:40;8.60;79.00
4578;DHT22;2301;47.354;8.528;2022-11-20T07:28:07;8.60;78.20
4578;DHT22;2301;47.354;8.528;2022-11-20T07:30:36;8.60;78.00
4578;DHT22;2301;47.354;8.528;2022-11-20T07:33:04;8.70;78.10
4578;DHT22;2301;47.354;8.528;2022-11-20T07:35:31;8.70;78.10
4578;DHT22;2301;47.354;8.528;2022-11-20T07:37:58;8.60;77.70
4578;DHT22;2301;47.354;8.528;2022-11-20T07:40:25;8.60;77.50
4578;DHT22;2301;47.354;8.528;2022-11-20T07:42:54;8.60;77.70
4578;DHT22;2301;47.354;8.528;2022-11-20T07:45:23;8.60;77.60
4578;DHT22;2301;47.354;8.528;2022-11-20T07:47:50;8.60;77.70
4578;DHT22;2301;47.354;8.528;2022-11-20T07:50:19;8.60;77.70
4578;DHT22;2301;47.354;8.528;2022-11-20T07:52:46;8.60;78.00
4578;DHT22;2301;47.354;8.528;2022-11-20T07:55:13;8.70;78.20
4578;DHT22;2301;47.354;8.528;2022-11-20T07:57:40;8.70;78.10
4578;DHT22;2301;47.354;8.528;2022-11-20T08:00:09;8.70;77.50
4578;DHT22;2301;47.354;8.528;2022-11-20T08:02:37;8.80;77.70
4578;DHT22;2301;47.354;8.528;2022-11-20T08:05:06;8.70;77.30
4578;DHT22;2301;47.354;8.528;2022-11-20T08:07:37;8.70;77.30
4578;DHT22;2301;47.354;8.528;2022-11-20T08:10:05;8.70;77.80
4578;DHT22;2301;47.354;8.528;2022-11-20T08:12:32;8.70;77.90
4578;DHT22;2301;47.354;8.528;2022-11-20T08:15:16;8.80;78.10
4578;DHT22;2301;47.354;8.528;2022-11-20T08:17:43;8.80;78.10
4578;DHT22;2301;47.354;8.528;2022-11-20T08:20:10;8.90;78.10
4578;DHT22;2301;47.354;8.528;2022-11-20T08:22:38;8.90;78.10
4578;DHT22;2301;47.354;8.528;2022-11-20T08:25:06;8.80;77.80
4578;DHT22;2301;47.354;8.528;2022-11-20T08:27:33;8.90;78.00
4578;DHT22;2301;47.354;8.528;2022-11-20T08:29:59;8.90;77.90
4578;DHT22;2301;47.354;8.528;2022-11-20T08:32:26;9.00;77.80
4578;DHT22;2301;47.354;8.528;2022-11-20T08:34:53;8.90;76.70
4578;DHT22;2301;47.354;8.528;2022-11-20T08:37:20;8.90;76.70
4578;DHT22;2301;47.354;8.528;2022-11-20T08:39:48;8.90;77.80
4578;DHT22;2301;47.354;8.528;2022-11-20T08:42:15;8.90;77.00
4578;DHT22;2301;47.354;8.528;2022-11-20T08:44:42;8.80;76.60
4578;DHT22;2301;47.354;8.528;2022-11-20T08:47:09;8.90;76.80
4578;DHT22;2301;47.354;8.528;2022-11-20T08:49:36;8.80;77.50
4578;DHT22;2301;47.354;8.528;2022-11-20T08:52:03;8.90;76.80
4578;DHT22;2301;47.354;8.528;2022-11-20T08:54:31;8.90;76.80
4578;DHT22;2301;47.354;8.528;2022-11-20T08:56:59;8.90;76.40
4578;DHT22;2301;47.354;8.528;2022-11-20T08:59:26;8.90;76.40
4578;DHT22;2301;47.354;8.528;2022-11-20T09:01:53;8.90;76.30
4578;DHT22;2301;47.354;8.528;2022-11-20T09:04:20;9.00;76.40
4578;DHT22;2301;47.354;8.528;2022-11-20T09:06:46;9.00;76.30
4578;DHT22;2301;47.354;8.528;2022-11-20T09:09:16;9.00;76.20
4578;DHT22;2301;47.354;8.528;2022-11-20T09:11:43;9.10;76.20
4578;DHT22;2301;47.354;8.528;2022-11-20T09:14:11;9.10;75.80
4578;DHT22;2301;47.354;8.528;2022-11-20T09:16:38;9.10;75.50
4578;DHT22;2301;47.354;8.528;2022-11-20T09:19:05;9.20;75.30
4578;DHT22;2301;47.354;8.528;2022-11-20T09:21:32;9.20;75.20
4578;DHT22;2301;47.354;8.528;2022-11-20T09:23:59;9.20;75.00
4578;DHT22;2301;47.354;8.528;2022-11-20T09:26:25;9.30;74.90
4578;DHT22;2301;47.354;8.528;2022-11-20T09:28:53;9.20;74.70
4578;DHT22;2301;47.354;8.528;2022-11-20T09:31:23;9.30;74.90
4578;DHT22;2301;47.354;8.528;2022-11-20T09:33:51;9.40;75.70
4578;DHT22;2301;47.354;8.528;2022-11-20T09:36:17;9.40;74.80
4578;DHT22;2301;47.354;8.528;2022-11-20T09:38:45;9.40;74.40
4578;DHT22;2301;47.354;8.528;2022-11-20T09:41:33;9.50;74.30
4578;DHT22;2301;47.354;8.528;2022-11-20T09:44:13;9.50;74.30
4578;DHT22;2301;47.354;8.528;2022-11-20T09:46:51;9.60;74.50
4578;DHT22;2301;47.354;8.528;2022-11-20T09:49:25;9.60;74.30
4578;DHT22;2301;47.354;8.528;2022-11-20T09:51:58;9.70;74.10
4578;DHT22;2301;47.354;8.528;2022-11-20T09:54:27;9.70;73.90
4578;DHT22;2301;47.354;8.528;2022-11-20T09:56:59;9.70;73.80
4578;DHT22;2301;47.354;8.528;2022-11-20T09:59:32;9.70;73.80
4578;DHT22;2301;47.354;8.528;2022-11-20T10:02:08;9.80;73.80
4578;DHT22;2301;47.354;8.528;2022-11-20T10:04:43;9.70;73.60
4578;DHT22;2301;47.354;8.528;2022-11-20T10:07:16;9.80;73.90
4578;DHT22;2301;47.354;8.528;2022-11-20T10:09:50;9.90;73.70
4578;DHT22;2301;47.354;8.528;2022-11-20T10:12:21;9.90;73.60
4578;DHT22;2301;47.354;8.528;2022-11-20T10:14:58;9.90;73.30
4578;DHT22;2301;47.354;8.528;2022-11-20T10:17:35;10.00;71.90
4578;DHT22;2301;47.354;8.528;2022-11-20T10:20:16;9.90;72.20
4578;DHT22;2301;47.354;8.528;2022-11-20T10:25:53;9.80;72.30
4578;DHT22;2301;47.354;8.528;2022-11-20T10:28:30;10.10;71.70
4578;DHT22;2301;47.354;8.528;2022-11-20T10:31:08;10.30;70.70
4578;DHT22;2301;47.354;8.528;2022-11-20T10:33:39;10.60;70.60
4578;DHT22;2301;47.354;8.528;2022-11-20T10:36:13;10.80;70.70
4578;DHT22;2301;47.354;8.528;2022-11-20T10:38:46;11.10;70.40
4578;DHT22;2301;47.354;8.528;2022-11-20T10:41:17;11.40;70.00
4578;DHT22;2301;47.354;8.528;2022-11-20T10:43:58;11.60;68.80
4578;DHT22;2301;47.354;8.528;2022-11-20T10:46:34;11.70;67.70
4578;DHT22;2301;47.354;8.528;2022-11-20T10:49:09;11.90;67.60
4578;DHT22;2301;47.354;8.528;2022-11-20T10:51:42;12.10;66.90
4578;DHT22;2301;47.354;8.528;2022-11-20T10:54:18;12.10;65.50
4578;DHT22;2301;47.354;8.528;2022-11-20T10:56:50;12.10;65.00
4578;DHT22;2301;47.354;8.528;2022-11-20T10:59:47;12.10;65.20
4578;DHT22;2301;47.354;8.528;2022-11-20T11:02:19;12.00;65.10
4578;DHT22;2301;47.354;8.528;2022-11-20T11:04:49;11.90;65.10
4578;DHT22;2301;47.354;8.528;2022-11-20T11:07:20;11.90;64.50
4578;DHT22;2301;47.354;8.528;2022-11-20T11:09:49;12.00;68.60
4578;DHT22;2301;47.354;8.528;2022-11-20T11:12:16;12.20;70.80
4578;DHT22;2301;47.354;8.528;2022-11-20T11:14:49;12.30;67.20
4578;DHT22;2301;47.354;8.528;2022-11-20T11:17:28;12.30;65.60
4578;DHT22;2301;47.354;8.528;2022-11-20T11:20:06;12.20;64.40
4578;DHT22;2301;47.354;8.528;2022-11-20T11:22:44;12.20;64.90
4578;DHT22;2301;47.354;8.528;2022-11-20T11:25:20;12.20;64.70
4578;DHT22;2301;47.354;8.528;2022-11-20T11:27:49;12.30;64.60
4578;DHT22;2301;47.354;8.528;2022-11-20T11:30:19;12.40;65.10
4578;DHT22;2301;47.354;8.528;2022-11-20T11:32:46;12.50;65.30
4578;DHT22;2301;47.354;8.528;2022-11-20T11:35:23;12.50;63.60
4578;DHT22;2301;47.354;8.528;2022-11-20T11:37:52;12.50;63.40
4578;DHT22;2301;47.354;8.528;2022-11-20T11:40:21;12.40;63.50
4578;DHT22;2301;47.354;8.528;2022-11-20T11:42:54;12.40;63.90
4578;DHT22;2301;47.354;8.528;2022-11-20T11:45:22;12.50;64.20
4578;DHT22;2301;47.354;8.528;2022-11-20T11:47:49;12.60;63.40
4578;DHT22;2301;47.354;8.528;2022-11-20T11:50:20;12.80;63.00
4578;DHT22;2301;47.354;8.528;2022-11-20T11:53:08;13.00;62.70
4578;DHT22;2301;47.354;8.528;2022-11-20T11:55:40;13.20;62.20
4578;DHT22;2301;47.354;8.528;2022-11-20T11:58:14;13.10;61.50
4578;DHT22;2301;47.354;8.528;2022-11-20T12:00:50;13.20;61.30
4578;DHT22;2301;47.354;8.528;2022-11-20T12:03:20;13.20;60.60
4578;DHT22;2301;47.354;8.528;2022-11-20T12:05:53;13.20;60.50
4578;DHT22;2301;47.354;8.528;2022-11-20T12:08:27;13.10;60.50
4578;DHT22;2301;47.354;8.528;2022-11-20T12:11:02;12.90;59.90
4578;DHT22;2301;47.354;8.528;2022-11-20T12:13:49;12.80;60.00
4578;DHT22;2301;47.354;8.528;2022-11-20T12:16:19;12.60;59.40
4578;DHT22;2301;47.354;8.528;2022-11-20T12:18:49;12.40;59.60
4578;DHT22;2301;47.354;8.528;2022-11-20T12:21:26;12.30;59.90
4578;DHT22;2301;47.354;8.528;2022-11-20T12:24:41;12.30;60.80
4578;DHT22;2301;47.354;8.528;2022-11-20T12:30:09;12.50;61.30
4578;DHT22;2301;47.354;8.528;2022-11-20T12:32:53;12.60;61.20
4578;DHT22;2301;47.354;8.528;2022-11-20T12:35:42;12.60;61.30
4578;DHT22;2301;47.354;8.528;2022-11-20T12:41:27;12.70;60.90
4578;DHT22;2301;47.354;8.528;2022-11-20T12:44:25;12.60;61.40
4578;DHT22;2301;47.354;8.528;2022-11-20T12:47:19;12.70;61.40
4578;DHT22;2301;47.354;8.528;2022-11-20T12:49:56;12.70;60.50
4578;DHT22;2301;47.354;8.528;2022-11-20T12:52:37;12.60;60.70
4578;DHT22;2301;47.354;8.528;2022-11-20T12:55:16;12.50;59.70
4578;DHT22;2301;47.354;8.528;2022-11-20T12:57:50;12.30;59.40
4578;DHT22;2301;47.354;8.528;2022-11-20T13:00:21;12.30;59.00
4578;DHT22;2301;47.354;8.528;2022-11-20T13:03:20;12.20;59.40
4578;DHT22;2301;47.354;8.528;2022-11-20T13:05:58;12.20;59.90
4578;DHT22;2301;47.354;8.528;2022-11-20T13:08:28;12.10;60.10
4578;DHT22;2301;47.354;8.528;2022-11-20T13:11:01;12.10;59.80
4578;DHT22;2301;47.354;8.528;2022-11-20T13:13:35;12.10;59.80
4578;DHT22;2301;47.354;8.528;2022-11-20T13:16:10;12.00;59.60
4578;DHT22;2301;47.354;8.528;2022-11-20T13:18:39;12.00;59.00
4578;DHT22;2301;47.354;8.528;2022-11-20T13:21:19;12.00;59.10
4578;DHT22;2301;47.354;8.528;2022-11-20T13:23:47;12.00;59.10
4578;DHT22;2301;47.354;8.528;2022-11-20T13:26:19;11.90;58.50
4578;DHT22;2301;47.354;8.528;2022-11-20T13:29:00;11.90;58.30
4578;DHT22;2301;47.354;8.528;2022-11-20T13:31:32;11.90;57.40
4578;DHT22;2301;47.354;8.528;2022-11-20T13:34:02;11.80;57.30
4578;DHT22;2301;47.354;8.528;2022-11-20T13:36:30;11.70;57.10
4578;DHT22;2301;47.354;8.528;2022-11-20T13:38:59;11.80;58.00
4578;DHT22;2301;47.354;8.528;2022-11-20T13:41:27;11.80;57.90
4578;DHT22;2301;47.354;8.528;2022-11-20T13:43:59;11.90;57.90
4578;DHT22;2301;47.354;8.528;2022-11-20T13:46:36;11.90;58.10
4578;DHT22;2301;47.354;8.528;2022-11-20T13:49:08;11.90;57.80
4578;DHT22;2301;47.354;8.528;2022-11-20T13:51:42;11.80;57.30
4578;DHT22;2301;47.354;8.528;2022-11-20T13:54:20;11.90;57.80
4578;DHT22;2301;47.354;8.528;2022-11-20T13:56:59;11.90;57.20
4578;DHT22;2301;47.354;8.528;2022-11-20T13:59:45;11.90;56.40
4578;DHT22;2301;47.354;8.528;2022-11-20T14:02:17;11.90;56.50
4578;DHT22;2301;47.354;8.528;2022-11-20T14:04:47;12.00;56.90
4578;DHT22;2301;47.354;8.528;2022-11-20T14:07:15;12.10;56.90
4578;DHT22;2301;47.354;8.528;2022-11-20T14:09:50;12.20;57.10
4578;DHT22;2301;47.354;8.528;2022-11-20T14:12:20;12.20;55.70
4578;DHT22;2301;47.354;8.528;2022-11-20T14:14:50;12.10;55.60
4578;DHT22;2301;47.354;8.528;2022-11-20T14:17:20;12.20;56.00
4578;DHT22;2301;47.354;8.528;2022-11-20T14:19:49;12.10;55.80
4578;DHT22;2301;47.354;8.528;2022-11-20T14:22:19;12.10;55.60
4578;DHT22;2301;47.354;8.528;2022-11-20T14:24:46;12.00;55.50
4578;DHT22;2301;47.354;8.528;2022-11-20T14:27:15;11.90;55.10
4578;DHT22;2301;47.354;8.528;2022-11-20T14:29:44;11.80;55.00
4578;DHT22;2301;47.354;8.528;2022-11-20T14:32:15;11.80;55.30
4578;DHT22;2301;47.354;8.528;2022-11-20T14:34:45;11.70;55.70
4578;DHT22;2301;47.354;8.528;2022-11-20T14:37:17;11.70;56.00
4578;DHT22;2301;47.354;8.528;2022-11-20T14:39:49;11.70;55.90
4578;DHT22;2301;47.354;8.528;2022-11-20T14:42:19;11.60;56.10
4578;DHT22;2301;47.354;8.528;2022-11-20T14:44:47;11.60;56.40
4578;DHT22;2301;47.354;8.528;2022-11-20T14:47:19;11.60;56.80
4578;DHT22;2301;47.354;8.528;2022-11-20T14:49:48;11.60;57.10
4578;DHT22;2301;47.354;8.528;2022-11-20T14:52:17;11.60;57.10
4578;DHT22;2301;47.354;8.528;2022-11-20T14:54:45;11.60;57.10
4578;DHT22;2301;47.354;8.528;2022-11-20T14:57:24;11.50;56.50
4578;DHT22;2301;47.354;8.528;2022-11-20T15:00:03;11.50;56.50
4578;DHT22;2301;47.354;8.528;2022-11-20T15:02:31;11.40;56.50
4578;DHT22;2301;47.354;8.528;2022-11-20T15:05:00;11.30;56.60
4578;DHT22;2301;47.354;8.528;2022-11-20T15:07:31;11.30;56.90
4578;DHT22;2301;47.354;8.528;2022-11-20T15:10:03;11.20;56.60
4578;DHT22;2301;47.354;8.528;2022-11-20T15:12:33;11.20;56.80
4578;DHT22;2301;47.354;8.528;2022-11-20T15:15:01;11.20;57.20
4578;DHT22;2301;47.354;8.528;2022-11-20T15:17:32;11.10;56.70
4578;DHT22;2301;47.354;8.528;2022-11-20T15:20:02;11.10;56.80
4578;DHT22;2301;47.354;8.528;2022-11-20T15:22:32;11.10;56.80
4578;DHT22;2301;47.354;8.528;2022-11-20T15:24:59;11.00;56.80
4578;DHT22;2301;47.354;8.528;2022-11-20T15:27:26;11.00;57.00
4578;DHT22;2301;47.354;8.528;2022-11-20T15:29:53;11.00;57.30
4578;DHT22;2301;47.354;8.528;2022-11-20T15:32:20;10.90;57.70
4578;DHT22;2301;47.354;8.528;2022-11-20T15:34:48;10.90;57.80
4578;DHT22;2301;47.354;8.528;2022-11-20T15:37:15;10.80;57.70
4578;DHT22;2301;47.354;8.528;2022-11-20T15:39:42;10.80;58.00
4578;DHT22;2301;47.354;8.528;2022-11-20T15:42:09;10.70;58.00
4578;DHT22;2301;47.354;8.528;2022-11-20T15:44:35;10.70;58.20
4578;DHT22;2301;47.354;8.528;2022-11-20T15:47:02;10.60;58.20
4578;DHT22;2301;47.354;8.528;2022-11-20T15:49:29;10.60;58.40
4578;DHT22;2301;47.354;8.528;2022-11-20T15:51:57;10.60;58.80
4578;DHT22;2301;47.354;8.528;2022-11-20T15:54:24;10.50;59.10
4578;DHT22;2301;47.354;8.528;2022-11-20T15:56:51;10.50;59.40
4578;DHT22;2301;47.354;8.528;2022-11-20T15:59:18;10.50;59.50
4578;DHT22;2301;47.354;8.528;2022-11-20T16:01:45;10.50;59.80
4578;DHT22;2301;47.354;8.528;2022-11-20T16:04:13;10.50;59.70
4578;DHT22;2301;47.354;8.528;2022-11-20T16:06:40;10.40;59.40
4578;DHT22;2301;47.354;8.528;2022-11-20T16:09:09;10.40;59.40
4578;DHT22;2301;47.354;8.528;2022-11-20T16:11:36;10.40;59.20
4578;DHT22;2301;47.354;8.528;2022-11-20T16:14:03;10.40;59.30
4578;DHT22;2301;47.354;8.528;2022-11-20T16:16:48;10.40;59.40
4578;DHT22;2301;47.354;8.528;2022-11-20T16:19:15;10.30;59.60
4578;DHT22;2301;47.354;8.528;2022-11-20T16:21:43;10.30;59.70
4578;DHT22;2301;47.354;8.528;2022-11-20T16:24:13;10.40;59.60
4578;DHT22;2301;47.354;8.528;2022-11-20T16:26:40;10.30;59.60
4578;DHT22;2301;47.354;8.528;2022-11-20T16:29:07;10.20;59.60
4578;DHT22;2301;47.354;8.528;2022-11-20T16:31:35;10.20;59.50
4578;DHT22;2301;47.354;8.528;2022-11-20T16:34:05;10.20;59.70
4578;DHT22;2301;47.354;8.528;2022-11-20T16:36:32;10.20;59.90
4578;DHT22;2301;47.354;8.528;2022-11-20T16:39:01;10.20;60.00